1VA4 weather

Evergreen Heliport
Marshall, Virginia, United States

Public forecast

Using degrees Fahrenheit for public forecast. Weather courtesy of forecast.io.

Closest aviation weather report (METAR) to Evergreen Heliport

Closest report is Leesburg Executive Airport, 14.9 nm (27.5 km) NE. Retrieved 2020/05/26 05:35 UTC (0 seconds ago):

KJYO 260535Z AUTO 12003KT 10SM CLR 16/16 A3019 RMK AO2

Closest aviation forecast (TAF) to Evergreen Heliport

Closest forecast is Washington Dulles International Airport, 17.0 nm (31.4 km) E. Retrieved 2020-05-26 00:30 UTC (5 hours ago):

TAF KIAD 252328Z 2600/2706 12005KT P6SM SCT035 FM260900 VRB03KT 5SM BR BKN005 FM261300 12004KT P6SM BKN015 FM261500 13005KT P6SM BKN025 FM261800 14008KT P6SM SCT030 FM270500 14005KT P6SM BKN015